PSK weather

Punta San Carlos Airstrip
Punta San Carlos, Baja California, Mexico

Public forecast

Using degrees Celsius for public forecast. Weather courtesy of forecast.io.

Closest aviation weather report (METAR) to Punta San Carlos Airstrip

Closest report is (Old) Puerto PeƱasco Airport, 146.1 nm (270.5 km) NE. Retrieved UTC (0 seconds ago):

Closest aviation forecast (TAF) to Punta San Carlos Airstrip

Closest forecast is General Ignacio P. Garcia International Airport, 235.2 nm (435.6 km) E. Retrieved 2020/05/26 06:33 UTC (3 hours ago):

TAF MMHO 260431Z 2606/2706 23005KT P6SM SKC FM261800 25010KT P6SM SKC FM270400 24005KT P6SM SKC